Uranium City, Canada
Current Conditions -  °F | °C
As of 6:00 PM on Wednesday 22 Oct 2014 (Local Time) from CYSF Reporting Station
Overcast Overcast  
Wind Chill: 34°   Ceiling: 200
Heat Index: 39°   Visibility: 0.12mi
Dew Point: 37°   Wind: 7mph
Humidity: 93%   Direction: 110°ESE
Pressure: 29.78"   Gusts: NA
Location:  59.57°N, 108.61°W
Report Text: CYSF 230000Z AUTO 11006KT 1/8SM VV002 04/03 A2978 RMK SLP100
Loading
Personal Weather Stations






























Interactive Weather Map
Tropical Storm Tracking
New forecast layout! Learn more

10-Day Weather Forecast

Advertisements
Track Severe Weather on mobile